Time;durP1;ratioP1;P1;durP2;ratioP2;P2;SDS_P1;SDS_P2;PMS_P1;PMS_P2;Temp;Humidity;BMP_temperature;BMP_pressure;BME280_temperature;BME280_humidity;BME280_pressure;Samples;Min_cycle;Max_cycle;Signal;HPM_P1;HPM_P2
2023/09/16 00:00:37;;;;;;;6.22;3.25;;;16.60;99.90;;;;;;5021834;28;20028;-65
2023/09/16 00:03:06;;;;;;;5.72;3.28;;;16.50;99.90;;;;;;5021764;28;20022;-65
2023/09/16 00:05:32;;;;;;;4.95;3.47;;;16.40;99.90;;;;;;5021723;28;20026;-65
2023/09/16 00:07:57;;;;;;;8.32;3.40;;;16.40;99.90;;;;;;5021537;28;20022;-65
2023/09/16 00:10:23;;;;;;;9.48;3.17;;;16.40;99.90;;;;;;5022252;28;20057;-65
2023/09/16 00:12:49;;;;;;;4.45;3.20;;;16.50;99.90;;;;;;5021223;28;20034;-65
2023/09/16 00:15:14;;;;;;;7.05;3.05;;;16.60;99.90;;;;;;5021551;28;20072;-65
2023/09/16 00:17:40;;;;;;;5.78;3.22;;;16.60;99.90;;;;;;5021215;28;20025;-65
2023/09/16 00:20:11;;;;;;;5.63;3.38;;;16.70;99.90;;;;;;5021916;28;20029;-65
2023/09/16 00:22:37;;;;;;;;;;;16.80;99.90;;;;;;5022398;28;20036;-65
2023/09/16 00:25:04;;;;;;;4.45;2.75;;;16.80;99.90;;;;;;5020975;28;19905;-66
2023/09/16 00:27:29;;;;;;;4.88;3.30;;;16.80;99.90;;;;;;5021190;28;20052;-65
2023/09/16 00:29:55;;;;;;;6.75;3.10;;;16.70;99.90;;;;;;5020864;28;20022;-65
2023/09/16 00:32:21;;;;;;;4.10;2.83;;;16.60;99.90;;;;;;5021315;28;20033;-65
2023/09/16 00:34:48;;;;;;;6.75;3.78;;;16.50;99.90;;;;;;5021868;28;20025;-65
2023/09/16 00:37:14;;;;;;;6.07;2.85;;;16.40;99.90;;;;;;5020956;28;20116;-65
2023/09/16 00:39:40;;;;;;;5.00;3.22;;;16.30;99.90;;;;;;5021068;28;20061;-65
2023/09/16 00:42:05;;;;;;;9.63;3.05;;;16.10;99.90;;;;;;5021511;28;20021;-65
2023/09/16 00:44:31;;;;;;;4.75;2.53;;;16.10;99.90;;;;;;5021683;28;20025;-65
2023/09/16 00:46:56;;;;;;;14.82;3.63;;;16.10;99.90;;;;;;5021576;28;20034;-65
2023/09/16 00:49:22;;;;;;;5.80;3.60;;;15.90;99.90;;;;;;5020636;28;20021;-65
2023/09/16 00:51:48;;;;;;;6.38;3.55;;;15.90;99.90;;;;;;5020403;28;20026;-65
2023/09/16 00:54:14;;;;;;;5.80;3.70;;;15.90;99.90;;;;;;5020911;28;20116;-65
2023/09/16 00:56:40;;;;;;;4.78;2.90;;;16.00;99.90;;;;;;5020422;28;20025;-65
2023/09/16 00:59:06;;;;;;;6.45;3.25;;;16.00;99.90;;;;;;5020568;28;20022;-65
2023/09/16 01:01:31;;;;;;;5.88;3.13;;;16.00;99.90;;;;;;5020322;28;20124;-65
2023/09/16 01:03:58;;;;;;;4.90;3.17;;;16.00;99.90;;;;;;5020677;28;20024;-65
2023/09/16 01:06:23;;;;;;;6.10;3.28;;;15.90;99.90;;;;;;5019884;28;20025;-65
2023/09/16 01:08:49;;;;;;;4.93;2.67;;;16.00;99.90;;;;;;5020385;28;20080;-65
2023/09/16 01:11:15;;;;;;;6.30;3.25;;;15.90;99.90;;;;;;5021018;28;20026;-66
2023/09/16 01:13:41;;;;;;;3.65;2.83;;;15.90;99.90;;;;;;5020855;28;20033;-65
2023/09/16 01:16:32;;;;;;;8.85;3.08;;;16.00;99.90;;;;;;5020428;28;20021;-65
2023/09/16 01:19:05;;;;;;;7.15;3.10;;;16.00;99.90;;;;;;5020469;28;20029;-65
2023/09/16 01:21:31;;;;;;;5.75;3.10;;;16.10;99.90;;;;;;5019999;28;20044;-65
2023/09/16 01:24:16;;;;;;;8.60;3.55;;;16.10;99.90;;;;;;5020025;28;20026;-65
2023/09/16 01:26:42;;;;;;;4.90;3.22;;;16.00;99.90;;;;;;5020273;28;20029;-65
2023/09/16 01:29:08;;;;;;;4.10;2.80;;;15.90;99.90;;;;;;5019878;28;20022;-65
2023/09/16 01:31:34;;;;;;;6.90;3.28;;;15.90;99.90;;;;;;5020142;28;20064;-65
2023/09/16 01:34:05;;;;;;;6.55;3.15;;;15.80;99.90;;;;;;5020246;28;20033;-65
2023/09/16 01:36:34;;;;;;;10.95;3.47;;;15.80;99.90;;;;;;5020480;28;20053;-66
2023/09/16 01:39:05;;;;;;;5.07;3.08;;;15.70;99.90;;;;;;5020092;28;20029;-65
2023/09/16 01:41:34;;;;;;;3.92;2.95;;;15.70;99.90;;;;;;5020502;28;20021;-65
2023/09/16 01:44:02;;;;;;;6.97;2.65;;;15.80;99.90;;;;;;5020576;28;20029;-65
2023/09/16 01:46:28;;;;;;;6.70;3.13;;;15.80;99.90;;;;;;5019482;28;20022;-65
2023/09/16 01:48:53;;;;;;;4.80;3.03;;;15.90;99.90;;;;;;5020317;28;20087;-65
2023/09/16 01:51:19;;;;;;;8.63;3.30;;;16.00;99.90;;;;;;5019734;28;20024;-65
2023/09/16 01:53:45;;;;;;;6.55;3.28;;;16.10;99.90;;;;;;5019603;28;20017;-65
2023/09/16 01:56:10;;;;;;;4.07;3.15;;;16.30;99.90;;;;;;5020530;28;20159;-65
2023/09/16 01:58:36;;;;;;;6.10;3.55;;;16.30;99.90;;;;;;5019578;28;20018;-65
2023/09/16 02:01:08;;;;;;;6.35;3.30;;;16.30;99.90;;;;;;5019783;28;20037;-65
2023/09/16 02:03:34;;;;;;;5.55;3.33;;;16.30;99.90;;;;;;5019544;28;20140;-65
2023/09/16 02:05:59;;;;;;;5.93;3.10;;;16.30;99.90;;;;;;5019633;28;20053;-65
2023/09/16 02:08:25;;;;;;;9.75;3.17;;;16.20;99.90;;;;;;5019372;28;20018;-65
2023/09/16 02:10:50;;;;;;;5.38;3.10;;;16.10;99.90;;;;;;5020387;28;20025;-65
2023/09/16 02:13:16;;;;;;;4.28;2.88;;;16.10;99.90;;;;;;5019863;28;20028;-65
2023/09/16 02:15:42;;;;;;;6.72;2.80;;;16.00;99.90;;;;;;5020145;28;20060;-65
2023/09/16 02:18:08;;;;;;;6.40;2.78;;;15.90;99.90;;;;;;5019525;28;20121;-65
2023/09/16 02:20:34;;;;;;;6.15;3.25;;;15.70;99.90;;;;;;5023138;28;20057;-65
2023/09/16 02:23:02;;;;;;;6.53;3.38;;;15.80;99.90;;;;;;5023144;28;20048;-65
2023/09/16 02:25:27;;;;;;;4.70;3.50;;;15.80;99.90;;;;;;5023596;28;20037;-65
2023/09/16 02:27:53;;;;;;;6.32;3.17;;;15.90;99.90;;;;;;5023181;28;20025;-65
2023/09/16 02:30:18;;;;;;;7.85;3.53;;;15.90;99.90;;;;;;5024061;28;20017;-65
2023/09/16 02:32:44;;;;;;;9.18;3.63;;;16.00;99.90;;;;;;5023484;28;20021;-65
2023/09/16 02:35:09;;;;;;;7.70;3.70;;;16.10;99.90;;;;;;5023429;28;20021;-65
2023/09/16 02:37:35;;;;;;;6.95;3.60;;;16.10;99.90;;;;;;5023003;28;20044;-65
2023/09/16 02:40:02;;;;;;;7.30;3.90;;;16.10;99.90;;;;;;5023333;28;20112;-65
2023/09/16 02:42:28;;;;;;;6.60;3.55;;;16.10;99.90;;;;;;5023240;28;20056;-65
2023/09/16 02:44:53;;;;;;;5.28;3.42;;;16.10;99.90;;;;;;5023793;28;20018;-65
2023/09/16 02:47:20;;;;;;;8.23;3.85;;;16.00;99.90;;;;;;5022979;28;20093;-65
2023/09/16 02:49:46;;;;;;;5.47;3.53;;;16.00;99.90;;;;;;5023184;28;20049;-65
2023/09/16 02:52:11;;;;;;;9.15;3.58;;;15.90;99.90;;;;;;5023387;28;20040;-65
2023/09/16 02:54:37;;;;;;;6.65;3.35;;;16.00;99.90;;;;;;5023542;28;20035;-66
2023/09/16 02:57:03;;;;;;;7.80;3.80;;;16.10;99.90;;;;;;5023015;28;20029;-65
2023/09/16 02:59:28;;;;;;;5.90;3.72;;;16.10;99.90;;;;;;5023160;28;20021;-65
2023/09/16 03:01:54;;;;;;;5.07;3.53;;;16.10;99.90;;;;;;5022814;28;20030;-65
2023/09/16 03:04:19;;;;;;;8.07;3.75;;;16.10;99.90;;;;;;5022561;28;20056;-65
2023/09/16 03:06:46;;;;;;;7.88;3.67;;;16.10;99.90;;;;;;5023015;28;20022;-65
2023/09/16 03:09:11;;;;;;;6.22;3.78;;;15.90;99.90;;;;;;5022744;28;20021;-66
2023/09/16 03:11:37;;;;;;;3.95;2.70;;;15.70;99.90;;;;;;5022649;28;20028;-65
2023/09/16 03:14:03;;;;;;;7.53;3.83;;;15.70;99.90;;;;;;5022372;28;20032;-65
2023/09/16 03:16:29;;;;;;;4.45;3.10;;;15.60;99.90;;;;;;5023246;28;20037;-65
2023/09/16 03:18:54;;;;;;;5.00;3.25;;;15.50;99.90;;;;;;5022540;28;20029;-65
2023/09/16 03:21:23;;;;;;;6.63;3.72;;;15.50;99.90;;;;;;5022498;28;20091;-65
2023/09/16 03:23:49;;;;;;;5.03;3.10;;;15.40;99.90;;;;;;5022274;28;20052;-65
2023/09/16 03:26:15;;;;;;;5.70;3.70;;;15.50;99.90;;;;;;5022459;28;20017;-65
2023/09/16 03:28:43;;;;;;;7.60;3.25;;;15.50;99.90;;;;;;5022986;28;20032;-65
2023/09/16 03:31:09;;;;;;;8.52;3.63;;;15.50;99.90;;;;;;5021863;28;20056;-65
2023/09/16 03:33:36;;;;;;;6.35;3.38;;;15.50;99.90;;;;;;5022075;28;20057;-65
2023/09/16 03:36:02;;;;;;;5.40;3.40;;;15.50;99.90;;;;;;5021996;28;20036;-65
2023/09/16 03:38:30;;;;;;;9.32;3.67;;;15.50;99.90;;;;;;5021892;28;20037;-65
2023/09/16 03:40:57;;;;;;;5.40;3.58;;;15.50;99.90;;;;;;5021731;28;20026;-65
2023/09/16 03:43:22;;;;;;;5.82;3.75;;;15.40;99.90;;;;;;5022444;28;20120;-65
2023/09/16 03:45:48;;;;;;;5.40;3.03;;;15.30;99.90;;;;;;5022017;28;20060;-65
2023/09/16 03:48:14;;;;;;;5.32;3.78;;;15.40;99.90;;;;;;5021979;28;20021;-65
2023/09/16 03:50:40;;;;;;;6.00;3.38;;;15.40;99.90;;;;;;5021709;28;20021;-65
2023/09/16 03:53:06;;;;;;;5.72;3.83;;;15.40;99.90;;;;;;5022505;28;20033;-65
2023/09/16 03:55:31;;;;;;;8.60;3.60;;;15.40;99.90;;;;;;5021485;28;20033;-65
2023/09/16 03:57:57;;;;;;;10.65;3.95;;;15.50;99.90;;;;;;5021623;28;20037;-66
2023/09/16 04:00:22;;;;;;;6.95;4.20;;;15.40;99.90;;;;;;5021723;28;20079;-65
2023/09/16 04:02:48;;;;;;;5.30;3.85;;;15.40;99.90;;;;;;5022287;28;20072;-65
2023/09/16 04:05:15;;;;;;;6.03;3.28;;;15.40;99.90;;;;;;5021328;28;20051;-65
2023/09/16 04:07:40;;;;;;;5.28;3.63;;;15.40;99.90;;;;;;5021295;28;20131;-65
2023/09/16 04:10:09;;;;;;;6.22;3.80;;;15.40;99.90;;;;;;5021563;28;20109;-65
2023/09/16 04:12:35;;;;;;;5.55;3.83;;;15.30;99.90;;;;;;5021556;28;20025;-65
2023/09/16 04:15:01;;;;;;;7.22;3.70;;;15.40;99.90;;;;;;5021508;28;20056;-65
2023/09/16 04:17:27;;;;;;;5.55;4.00;;;15.40;99.90;;;;;;5021035;28;20025;-65
2023/09/16 04:19:53;;;;;;;8.90;4.22;;;15.40;99.90;;;;;;5021968;28;20029;-65
2023/09/16 04:22:19;;;;;;;5.70;3.85;;;15.30;99.90;;;;;;5021005;28;20108;-67
2023/09/16 04:24:45;;;;;;;6.72;3.45;;;15.40;99.90;;;;;;5021052;28;20028;-65
2023/09/16 04:27:10;;;;;;;5.30;3.70;;;15.40;99.90;;;;;;5021751;28;20024;-65
2023/09/16 04:29:36;;;;;;;5.93;4.22;;;15.30;99.90;;;;;;5020846;28;20021;-66
2023/09/16 04:32:02;;;;;;;9.98;3.80;;;15.40;99.90;;;;;;5021110;28;20036;-65
2023/09/16 04:34:27;;;;;;;7.00;4.05;;;15.40;99.90;;;;;;5020719;28;20032;-65
2023/09/16 04:36:56;;;;;;;9.82;3.60;;;15.40;99.90;;;;;;5020838;28;20037;-65
2023/09/16 04:39:23;;;;;;;9.93;4.13;;;15.50;99.90;;;;;;5020896;28;20032;-66
2023/09/16 04:41:55;;;;;;;8.52;3.55;;;15.40;99.90;;;;;;5019738;28;20033;-65
2023/09/16 04:44:22;;;;;;;5.78;3.28;;;15.40;99.90;;;;;;5020751;28;20040;-66
2023/09/16 04:46:47;;;;;;;5.60;3.25;;;15.30;99.90;;;;;;5020971;28;20022;-66
2023/09/16 04:49:13;;;;;;;5.03;3.55;;;15.20;99.90;;;;;;5021392;28;20089;-65
2023/09/16 04:51:39;;;;;;;5.57;3.40;;;15.10;99.90;;;;;;5020712;28;20053;-66
2023/09/16 04:54:05;;;;;;;7.68;4.10;;;15.00;99.90;;;;;;5020755;28;20033;-65
2023/09/16 04:56:31;;;;;;;8.23;4.18;;;15.00;99.90;;;;;;5020703;28;20030;-66
2023/09/16 04:58:56;;;;;;;7.47;4.82;;;15.10;99.90;;;;;;5020830;28;20055;-65
2023/09/16 05:01:23;;;;;;;7.05;3.95;;;15.00;99.90;;;;;;5021134;28;20029;-66
2023/09/16 05:03:48;;;;;;;6.60;4.07;;;15.00;99.90;;;;;;5020257;28;20079;-66
2023/09/16 05:06:14;;;;;;;5.80;3.72;;;15.10;99.90;;;;;;5020908;28;20112;-65
2023/09/16 05:08:39;;;;;;;5.15;3.60;;;15.20;99.90;;;;;;5020500;28;20098;-65
2023/09/16 05:11:05;;;;;;;7.47;3.58;;;15.20;99.90;;;;;;5020177;28;20061;-65
2023/09/16 05:13:31;;;;;;;5.65;3.67;;;15.20;99.90;;;;;;5020548;28;20033;-65
2023/09/16 05:15:56;;;;;;;5.65;3.47;;;15.20;99.90;;;;;;5020449;28;20115;-65
2023/09/16 05:18:22;;;;;;;14.45;3.65;;;15.20;99.90;;;;;;5020080;28;20068;-65
2023/09/16 05:20:51;;;;;;;5.65;3.47;;;15.20;99.90;;;;;;5020290;28;20021;-65
2023/09/16 05:23:17;;;;;;;5.18;3.22;;;15.20;99.90;;;;;;5020913;28;20132;-65
2023/09/16 05:25:46;;;;;;;6.15;3.75;;;15.10;99.90;;;;;;5020620;28;20049;-65
2023/09/16 05:28:12;;;;;;;7.80;3.83;;;15.10;99.90;;;;;;5020322;28;20031;-65
2023/09/16 05:30:38;;;;;;;6.38;3.20;;;15.20;99.90;;;;;;5019858;28;20094;-65
2023/09/16 05:33:04;;;;;;;11.30;3.50;;;15.20;99.90;;;;;;5020329;28;20029;-65
2023/09/16 05:35:29;;;;;;;5.35;3.55;;;15.20;99.90;;;;;;5019822;28;20057;-65
2023/09/16 05:37:55;;;;;;;5.53;3.65;;;15.10;99.90;;;;;;5042734;22;20045;-73
2023/09/16 05:40:20;;;;;;;7.60;3.40;;;15.20;99.90;;;;;;5037164;28;20022;-74
2023/09/16 05:42:46;;;;;;;8.50;3.13;;;15.20;99.90;;;;;;5020745;28;20026;-74
2023/09/16 05:45:11;;;;;;;10.93;3.53;;;15.30;99.90;;;;;;5037304;28;20036;-74
2023/09/16 05:47:37;;;;;;;5.95;3.70;;;15.40;99.90;;;;;;5037231;28;20025;-74
2023/09/16 05:50:03;;;;;;;8.15;3.67;;;15.30;99.90;;;;;;5019740;28;20018;-74
2023/09/16 05:52:28;;;;;;;7.28;3.85;;;15.40;99.90;;;;;;5019430;28;20029;-74
2023/09/16 05:54:54;;;;;;;4.22;3.10;;;15.40;99.90;;;;;;5019972;28;20021;-74
2023/09/16 05:57:20;;;;;;;5.75;3.70;;;15.40;99.90;;;;;;5019729;28;20026;-73
2023/09/16 05:59:45;;;;;;;9.70;3.67;;;15.40;99.90;;;;;;5020377;28;20028;-73
2023/09/16 06:02:11;;;;;;;4.57;3.10;;;15.40;99.90;;;;;;5037545;28;20029;-74
2023/09/16 06:04:36;;;;;;;6.80;3.30;;;15.40;99.90;;;;;;5019878;28;20028;-74
2023/09/16 06:07:02;;;;;;;5.18;3.33;;;15.40;99.90;;;;;;5036898;28;20051;-73
2023/09/16 06:09:27;;;;;;;6.68;3.72;;;15.30;99.90;;;;;;5019720;28;20026;-74
2023/09/16 06:11:53;;;;;;;5.07;3.47;;;15.40;99.90;;;;;;5019604;28;20021;-74
2023/09/16 06:14:19;;;;;;;5.47;3.42;;;15.60;99.90;;;;;;5019800;28;20112;-74
2023/09/16 06:16:44;;;;;;;8.02;4.18;;;15.60;99.90;;;;;;5019440;28;20029;-74
2023/09/16 06:19:10;;;;;;;5.10;3.30;;;15.60;99.90;;;;;;5019413;28;20021;-74
2023/09/16 06:21:35;;;;;;;5.38;3.67;;;15.60;99.90;;;;;;5036903;28;20025;-74
2023/09/16 06:24:01;;;;;;;7.45;3.88;;;15.60;99.90;;;;;;5019287;28;20025;-74
2023/09/16 06:26:26;;;;;;;5.82;3.78;;;15.60;99.90;;;;;;5036999;28;20026;-74
2023/09/16 06:28:52;;;;;;;5.25;3.72;;;15.70;99.90;;;;;;5019077;28;20026;-74
2023/09/16 06:31:17;;;;;;;8.32;3.30;;;15.60;99.90;;;;;;5019297;28;20075;-73
2023/09/16 06:33:43;;;;;;;4.38;3.15;;;15.70;99.90;;;;;;5019244;28;20107;-74
2023/09/16 06:36:09;;;;;;;6.20;3.33;;;15.80;99.90;;;;;;5019330;28;20060;-74
2023/09/16 06:38:35;;;;;;;5.45;3.67;;;15.80;99.90;;;;;;5036413;28;20033;-74
2023/09/16 06:41:00;;;;;;;6.43;3.40;;;15.70;99.90;;;;;;5036558;28;20076;-73
2023/09/16 06:43:26;;;;;;;7.47;3.25;;;15.90;99.90;;;;;;5036834;28;20049;-73
2023/09/16 06:45:51;;;;;;;9.48;3.97;;;16.00;99.90;;;;;;5036462;28;20029;-74
2023/09/16 06:48:17;;;;;;;5.28;3.42;;;16.00;99.90;;;;;;5019593;28;20021;-73
2023/09/16 06:50:43;;;;;;;5.53;3.47;;;16.10;99.90;;;;;;5019916;28;20064;-73
2023/09/16 06:53:09;;;;;;;5.38;3.08;;;16.20;99.90;;;;;;5019402;28;20033;-73
2023/09/16 06:55:35;;;;;;;6.20;3.30;;;16.20;99.90;;;;;;5019105;28;20021;-73
2023/09/16 06:58:04;;;;;;;7.05;3.70;;;16.30;99.90;;;;;;5018968;28;20095;-73
2023/09/16 07:00:30;;;;;;;5.05;3.30;;;16.40;99.90;;;;;;5019008;28;20052;-73
2023/09/16 07:02:57;;;;;;;7.40;3.67;;;16.40;99.90;;;;;;5019002;28;20032;-73
2023/09/16 07:05:23;;;;;;;5.40;3.05;;;16.30;99.90;;;;;;5021174;28;20025;-73
2023/09/16 07:07:48;;;;;;;3.50;2.72;;;16.40;99.90;;;;;;5022736;28;20120;-73
2023/09/16 07:10:14;;;;;;;5.53;3.58;;;16.50;99.90;;;;;;5022478;28;20021;-73
2023/09/16 07:12:39;;;;;;;7.10;3.28;;;16.70;99.90;;;;;;5022444;28;20040;-74
2023/09/16 07:15:05;;;;;;;4.90;3.10;;;16.70;99.90;;;;;;5022613;28;20044;-75
2023/09/16 07:17:33;;;;;;;7.85;3.75;;;16.80;99.90;;;;;;5022589;28;20032;-74
2023/09/16 07:19:59;;;;;;;8.02;3.42;;;16.90;99.90;;;;;;5022419;28;20064;-74
2023/09/16 07:22:25;;;;;;;4.40;3.40;;;17.00;99.90;;;;;;5022050;28;20065;-74
2023/09/16 07:24:50;;;;;;;4.18;2.88;;;17.10;99.90;;;;;;5022250;28;20044;-74
2023/09/16 07:27:17;;;;;;;7.28;3.58;;;17.20;99.90;;;;;;5039740;28;20029;-74
2023/09/16 07:29:43;;;;;;;5.82;3.15;;;17.20;99.90;;;;;;5039541;28;20041;-74
2023/09/16 07:32:08;;;;;;;4.40;3.35;;;17.30;99.90;;;;;;5022791;28;20079;-74
2023/09/16 07:34:34;;;;;;;5.30;3.10;;;17.30;99.90;;;;;;5023089;28;20032;-74
2023/09/16 07:37:01;;;;;;;4.68;3.22;;;17.30;99.90;;;;;;5022118;28;20021;-75
2023/09/16 07:39:27;;;;;;;6.93;3.28;;;17.40;99.90;;;;;;5022139;28;20112;-74
2023/09/16 07:41:52;;;;;;;6.65;3.20;;;17.50;99.90;;;;;;5022148;28;20029;-74
2023/09/16 07:44:18;;;;;;;3.38;2.63;;;17.70;99.90;;;;;;5022895;28;20028;-75
2023/09/16 07:46:43;;;;;;;4.45;3.00;;;17.80;99.90;;;;;;5039211;28;20021;-75
2023/09/16 07:49:09;;;;;;;5.65;3.45;;;17.90;99.90;;;;;;5021609;28;20124;-74
2023/09/16 07:51:35;;;;;;;6.97;3.30;;;17.90;99.90;;;;;;5021949;28;20071;-76
2023/09/16 07:54:01;;;;;;;4.05;2.90;;;18.00;99.90;;;;;;5039491;28;20049;-73
2023/09/16 07:56:28;;;;;;;4.75;3.20;;;18.10;99.90;;;;;;5021661;28;20025;-73
2023/09/16 07:58:54;;;;;;;6.40;2.97;;;18.10;99.90;;;;;;5021436;28;20024;-73
2023/09/16 08:01:19;;;;;;;8.68;4.15;;;18.20;99.90;;;;;;5039224;28;20017;-73
2023/09/16 08:03:45;;;;;;;7.32;3.08;;;18.30;99.90;;;;;;5039078;28;20029;-74
2023/09/16 08:06:11;;;;;;;4.75;3.45;;;18.40;99.90;;;;;;5038904;28;20029;-73
2023/09/16 08:08:37;;;;;;;8.80;3.28;;;18.40;99.90;;;;;;5038960;28;20028;-74
2023/09/16 08:11:03;;;;;;;6.65;4.10;;;18.50;99.90;;;;;;5021609;28;20021;-74
2023/09/16 08:13:28;;;;;;;7.15;3.40;;;18.60;99.90;;;;;;5021566;28;20021;-73
2023/09/16 08:15:55;;;;;;;4.43;2.78;;;18.60;99.90;;;;;;5038629;28;20028;-72
2023/09/16 08:18:20;;;;;;;4.43;3.08;;;18.70;99.90;;;;;;5038640;28;20022;-74
2023/09/16 08:20:46;;;;;;;5.45;3.13;;;18.80;99.90;;;;;;5038805;28;20091;-73
2023/09/16 08:23:13;;;;;;;4.78;3.05;;;18.90;99.90;;;;;;5038518;28;20044;-74
2023/09/16 08:25:38;;;;;;;5.47;2.80;;;19.00;99.90;;;;;;5038490;28;20018;-74
2023/09/16 08:28:04;;;;;;;9.23;3.60;;;19.00;99.90;;;;;;5021383;28;20025;-74
2023/09/16 08:30:30;;;;;;;6.28;3.20;;;19.10;99.90;;;;;;5038707;28;20021;-74
2023/09/16 08:32:55;;;;;;;9.60;3.60;;;19.20;99.90;;;;;;5038584;28;20033;-74
2023/09/16 08:35:24;;;;;;;4.13;3.35;;;19.30;99.90;;;;;;5020884;28;20021;-75
2023/09/16 08:37:50;;;;;;;4.93;2.70;;;19.30;99.90;;;;;;5021054;28;20087;-75
2023/09/16 08:40:16;;;;;;;6.38;3.35;;;19.40;99.90;;;;;;5038313;28;20029;-73
2023/09/16 08:43:03;;;;;;;4.68;2.80;;;19.40;99.90;;;;;;5020814;28;20029;-72
2023/09/16 08:45:32;;;;;;;4.53;3.13;;;19.60;99.90;;;;;;5021621;28;20026;-74
2023/09/16 08:48:02;;;;;;;6.38;3.28;;;19.60;99.90;;;;;;5037875;28;20048;-71
2023/09/16 08:50:31;;;;;;;4.95;3.10;;;19.70;99.90;;;;;;5038048;28;20029;-71
2023/09/16 08:53:01;;;;;;;4.47;3.72;;;19.70;99.90;;;;;;5020826;28;20034;-71
2023/09/16 08:55:27;;;;;;;7.05;3.47;;;19.70;99.90;;;;;;5020953;28;20028;-73
2023/09/16 08:58:08;;;;;;;13.73;3.25;;;20.00;99.90;;;;;;5037686;28;20033;-74
2023/09/16 09:00:33;;;;;;;4.93;2.90;;;20.00;99.90;;;;;;5020476;28;20121;-73
2023/09/16 09:02:59;;;;;;;3.05;2.45;;;20.10;99.90;;;;;;5020666;28;20112;-73
2023/09/16 09:05:26;;;;;;;5.85;2.67;;;20.20;99.90;;;;;;5020702;28;20017;-72
2023/09/16 09:07:51;;;;;;;5.47;3.25;;;20.30;99.90;;;;;;5020036;28;20026;-72
2023/09/16 09:10:17;;;;;;;4.22;2.90;;;20.50;99.90;;;;;;5037660;28;20048;-72
2023/09/16 09:12:44;;;;;;;4.63;2.75;;;20.80;99.90;;;;;;5020125;28;20128;-73
2023/09/16 09:15:15;;;;;;;5.03;3.03;;;20.90;99.90;;;;;;5020150;28;20036;-73
2023/09/16 09:17:49;;;;;;;5.35;3.58;;;20.90;99.90;;;;;;5019885;28;20049;-74
2023/09/16 09:20:18;;;;;;;5.38;3.03;;;21.00;99.90;;;;;;5037402;28;20029;-72
2023/09/16 09:22:45;;;;;;;6.72;3.38;;;21.00;99.90;;;;;;5037738;28;20061;-71
2023/09/16 09:25:11;;;;;;;3.08;2.78;;;21.00;99.90;;;;;;5019902;28;20102;-71
2023/09/16 09:27:36;;;;;;;4.07;3.17;;;21.10;99.90;;;;;;5019539;28;20026;-72
2023/09/16 09:30:04;;;;;;;8.70;3.05;;;21.20;99.90;;;;;;5020290;28;20083;-71
2023/09/16 09:32:31;;;;;;;5.18;3.03;;;21.20;99.90;;;;;;5019898;28;20116;-72
2023/09/16 09:35:06;;;;;;;3.70;3.17;;;21.20;99.90;;;;;;5019804;28;20029;-73
2023/09/16 09:37:33;;;;;;;4.60;3.10;;;21.30;99.90;;;;;;5019971;28;20025;-73
2023/09/16 09:40:19;;;;;;;5.10;2.85;;;21.30;99.90;;;;;;5037116;28;20057;-73
2023/09/16 09:42:47;;;;;;;3.40;3.10;;;21.30;99.90;;;;;;5036880;28;20022;-73
2023/09/16 09:45:18;;;;;;;4.15;2.97;;;21.50;99.90;;;;;;5037168;28;20100;-73
2023/09/16 09:47:45;;;;;;;6.05;3.70;;;21.60;99.90;;;;;;5019783;28;20113;-73
2023/09/16 09:50:15;;;;;;;4.72;3.22;;;21.80;99.90;;;;;;5037291;28;20033;-72
2023/09/16 09:52:50;;;;;;;5.60;3.40;;;21.90;99.90;;;;;;5020150;28;20025;-72
2023/09/16 09:55:17;;;;;;;4.07;3.25;;;22.00;99.90;;;;;;5019691;28;20021;-72
2023/09/16 09:57:45;;;;;;;16.25;3.88;;;22.50;99.90;;;;;;5019576;28;20030;-73
2023/09/16 10:00:14;;;;;;;7.32;3.33;;;22.60;99.90;;;;;;5036863;28;20104;-73
2023/09/16 10:02:40;;;;;;;4.88;3.35;;;22.70;99.90;;;;;;5036809;28;20029;-73
2023/09/16 10:05:07;;;;;;;5.57;3.42;;;22.80;99.90;;;;;;5037185;28;20017;-73
2023/09/16 10:07:32;;;;;;;7.30;3.97;;;22.70;99.90;;;;;;5036945;28;20021;-73
2023/09/16 10:09:58;;;;;;;5.63;3.40;;;22.90;99.90;;;;;;5036814;28;20029;-73
2023/09/16 10:12:24;;;;;;;6.65;3.85;;;23.00;99.90;;;;;;5036863;28;20025;-73
2023/09/16 10:14:53;;;;;;;6.03;3.72;;;23.20;99.90;;;;;;5036746;28;20075;-73
2023/09/16 10:17:20;;;;;;;3.58;3.17;;;23.50;99.90;;;;;;5019201;28;20021;-73
2023/09/16 10:19:46;;;;;;;6.82;3.80;;;23.80;99.90;;;;;;5036844;28;20029;-73
2023/09/16 10:22:12;;;;;;;9.07;3.67;;;23.90;99.90;;;;;;5037137;28;20028;-73
2023/09/16 10:24:43;;;;;;;5.78;4.50;;;24.30;99.90;;;;;;5019485;28;20021;-73
2023/09/16 10:27:33;;;;;;;6.63;3.45;;;24.90;99.90;;;;;;5019350;28;20056;-73
2023/09/16 10:30:00;;;;;;;5.70;4.05;;;25.30;99.90;;;;;;5036252;28;20056;-73
2023/09/16 10:32:27;;;;;;;10.75;3.72;;;25.50;99.90;;;;;;5019375;28;20037;-73
2023/09/16 10:34:53;;;;;;;8.68;3.88;;;25.00;99.90;;;;;;5036746;28;20030;-73
2023/09/16 10:37:21;;;;;;;6.65;4.18;;;24.70;99.90;;;;;;5019124;28;20029;-72
2023/09/16 10:39:49;;;;;;;4.78;3.97;;;24.70;99.90;;;;;;5037421;28;20059;-73
2023/09/16 10:42:21;;;;;;;5.90;4.00;;;24.60;99.90;;;;;;5022853;28;20112;-72
2023/09/16 10:44:47;;;;;;;7.20;3.83;;;24.50;99.90;;;;;;5040420;28;20022;-72
2023/09/16 10:47:16;;;;;;;7.10;4.55;;;24.70;99.90;;;;;;5022839;28;20026;-72
2023/09/16 10:49:45;;;;;;;8.13;4.63;;;25.00;99.90;;;;;;5022921;28;20022;-74
2023/09/16 10:52:20;;;;;;;4.97;4.13;;;25.10;99.90;;;;;;5022819;28;20026;-73
2023/09/16 10:55:03;;;;;;;7.45;4.43;;;25.70;99.90;;;;;;5023626;28;20120;-71
2023/09/16 10:57:36;;;;;;;5.43;4.20;;;25.60;99.90;;;;;;5022659;28;20025;-71
2023/09/16 11:00:03;;;;;;;8.80;4.10;;;25.70;99.90;;;;;;5023137;28;20029;-71
2023/09/16 11:02:40;;;;;;;4.90;4.25;;;25.80;99.90;;;;;;5040159;28;20061;-71
2023/09/16 11:05:06;;;;;;;5.75;4.15;;;27.20;99.90;;;;;;5022766;28;20022;-71
2023/09/16 11:07:32;;;;;;;5.90;4.00;;;27.80;99.90;;;;;;5022496;28;20113;-71
2023/09/16 11:09:58;;;;;;;5.18;4.43;;;27.00;99.90;;;;;;5039956;28;20029;-71
2023/09/16 11:12:25;;;;;;;6.10;4.25;;;27.40;99.90;;;;;;5022432;28;20053;-71
2023/09/16 11:14:51;;;;;;;5.57;4.78;;;27.40;99.90;;;;;;5023505;28;20025;-71
2023/09/16 11:17:17;;;;;;;8.88;5.15;;;27.20;99.90;;;;;;5022284;28;20120;-71
2023/09/16 11:19:42;;;;;;;6.28;5.32;;;27.00;99.90;;;;;;5039720;28;20052;-71
2023/09/16 11:22:09;;;;;;;5.80;4.88;;;27.10;99.90;;;;;;5022252;28;20025;-71
2023/09/16 11:24:35;;;;;;;6.35;4.53;;;27.00;99.90;;;;;;5039906;28;20030;-71
2023/09/16 11:27:01;;;;;;;7.65;4.75;;;27.40;99.90;;;;;;5022731;28;20022;-71
2023/09/16 11:29:28;;;;;;;5.50;4.65;;;27.80;99.90;;;;;;5040830;28;20022;-65
2023/09/16 11:31:55;;;;;;;6.55;4.15;;;27.50;99.90;;;;;;5039542;28;20053;-67
2023/09/16 11:34:24;;;;;;;6.47;5.28;;;27.50;99.90;;;;;;5022735;28;20017;-67
2023/09/16 11:36:57;;;;;;;5.88;4.32;;;27.40;99.90;;;;;;5022664;28;20037;-65
2023/09/16 11:39:33;;;;;;;5.90;4.60;;;27.20;99.90;;;;;;5063071;22;20041;-72
2023/09/16 11:41:58;;;;;;;6.38;4.63;;;27.60;99.90;;;;;;5021881;28;20029;-72
2023/09/16 11:44:24;;;;;;;6.15;4.38;;;28.30;99.90;;;;;;5039330;28;20056;-72
2023/09/16 11:46:50;;;;;;;6.47;5.15;;;29.30;99.90;;;;;;5021745;28;20025;-72
2023/09/16 11:49:16;;;;;;;5.28;4.72;;;29.10;99.90;;;;;;5021752;28;20029;-72
2023/09/16 11:51:42;;;;;;;8.60;4.93;;;29.20;99.90;;;;;;5021177;28;20028;-72
2023/09/16 11:54:08;;;;;;;6.18;4.70;;;30.00;99.90;;;;;;5022005;28;20044;-72
2023/09/16 11:56:40;;;;;;;8.43;4.72;;;29.60;99.90;;;;;;5022461;28;20120;-72
2023/09/16 11:59:06;;;;;;;6.32;5.07;;;29.50;99.90;;;;;;5038993;28;20022;-72
2023/09/16 12:01:33;;;;;;;4.20;3.78;;;29.60;99.90;;;;;;5022246;28;20093;-72
2023/09/16 12:04:00;;;;;;;4.75;4.10;;;30.40;99.90;;;;;;5038978;28;20076;-72
2023/09/16 12:06:27;;;;;;;6.55;3.72;;;31.80;99.90;;;;;;5038982;28;20055;-72
2023/09/16 12:08:55;;;;;;;6.15;4.55;;;33.40;99.90;;;;;;5038751;28;20105;-72
2023/09/16 12:11:22;;;;;;;7.57;5.05;;;33.50;99.90;;;;;;5022522;28;20048;-72
2023/09/16 12:13:48;;;;;;;5.55;4.47;;;32.70;99.90;;;;;;5021756;28;20053;-72
2023/09/16 12:16:15;;;;;;;7.20;4.50;;;30.60;99.90;;;;;;5021487;28;20032;-72
2023/09/16 12:18:42;;;;;;;5.38;4.40;;;29.80;99.90;;;;;;5021161;28;20022;-72
2023/09/16 12:21:08;;;;;;;6.10;4.40;;;30.10;99.90;;;;;;5038469;28;20037;-72
2023/09/16 12:23:34;;;;;;;6.32;4.55;;;30.60;99.90;;;;;;5038611;28;20030;-72
2023/09/16 12:25:59;;;;;;;5.75;4.68;;;30.30;99.90;;;;;;5021285;28;20021;-72
2023/09/16 12:28:25;;;;;;;5.25;4.57;;;29.40;99.90;;;;;;5021792;28;20033;-72
2023/09/16 12:30:52;;;;;;;5.57;3.90;;;29.40;99.90;;;;;;5021326;28;20025;-71
2023/09/16 12:33:19;;;;;;;5.55;4.75;;;30.30;99.90;;;;;;5021146;28;20033;-70
2023/09/16 12:35:46;;;;;;;4.82;4.25;;;31.00;99.90;;;;;;5038533;28;20100;-70
2023/09/16 12:38:12;;;;;;;5.45;4.78;;;32.40;99.90;;;;;;5038306;28;20026;-70
2023/09/16 12:40:37;;;;;;;5.88;4.88;;;31.30;99.90;;;;;;5021713;28;20022;-71
2023/09/16 12:43:05;;;;;;;4.55;4.15;;;31.50;99.90;;;;;;5020740;28;20080;-71
2023/09/16 12:45:33;;;;;;;5.28;4.40;;;30.40;99.90;;;;;;5021044;28;20099;-72